createdAt,value
2022-11-28T00:01:43.884Z,69.35
2022-11-28T00:04:13.524Z,69.07
2022-11-28T00:06:44.787Z,68.92
2022-11-28T00:09:14.426Z,68.84
2022-11-28T00:11:44.951Z,68.83
2022-11-28T00:14:13.710Z,68.86
2022-11-28T00:16:42.718Z,68.86
2022-11-28T00:19:12.978Z,68.91
2022-11-28T00:21:41.868Z,68.86
2022-11-28T00:24:10.548Z,69.20
2022-11-28T00:26:40.892Z,69.33
2022-11-28T00:29:10.664Z,69.04
2022-11-28T00:31:41.905Z,69.13
2022-11-28T00:34:11.679Z,68.99
2022-11-28T00:36:40.263Z,68.69
2022-11-28T00:39:08.688Z,69.01
2022-11-28T00:41:37.113Z,68.74
2022-11-28T00:44:05.689Z,68.62
2022-11-28T00:46:35.538Z,68.50
2022-11-28T00:49:03.998Z,68.46
2022-11-28T00:51:33.759Z,68.30
2022-11-28T00:54:04.255Z,68.36
2022-11-28T00:56:34.528Z,68.53
2022-11-28T00:59:03.120Z,68.76
2022-11-28T01:01:34.594Z,68.71
2022-11-28T01:04:06.247Z,68.71
2022-11-28T01:06:37.021Z,68.59
2022-11-28T01:09:10.134Z,68.26
2022-11-28T01:11:39.463Z,68.20
2022-11-28T01:14:09.389Z,68.03
2022-11-28T01:16:37.932Z,68.05
2022-11-28T01:19:06.827Z,67.90
2022-11-28T01:21:36.156Z,67.92
2022-11-28T01:24:08.493Z,67.47
2022-11-28T01:26:38.870Z,67.26
2022-11-28T01:29:08.358Z,67.08
2022-11-28T01:31:37.444Z,67.01
2022-11-28T01:34:05.785Z,67.05
2022-11-28T01:36:34.266Z,66.98
2022-11-28T01:39:05.411Z,67.28
2022-11-28T01:41:33.944Z,67.15
2022-11-28T01:44:08.917Z,67.06
2022-11-28T01:46:37.451Z,66.92
2022-11-28T01:49:13.410Z,66.91
2022-11-28T01:51:46.044Z,67.15
2022-11-28T01:54:16.356Z,67.14
2022-11-28T01:56:50.624Z,66.96
2022-11-28T01:59:20.166Z,67.01
2022-11-28T02:01:48.932Z,66.83
2022-11-28T02:04:20.398Z,66.89
2022-11-28T02:06:49.835Z,67.14
2022-11-28T02:09:18.570Z,67.40
2022-11-28T02:12:19.117Z,67.51
2022-11-28T02:15:02.754Z,67.37
2022-11-28T02:17:44.529Z,67.45
2022-11-28T02:20:50.495Z,67.46
2022-11-28T02:23:23.757Z,67.31
2022-11-28T02:26:22.242Z,67.24
2022-11-28T02:29:33.794Z,67.35
2022-11-28T02:32:18.067Z,67.37
2022-11-28T02:34:54.740Z,67.36
2022-11-28T02:37:30.054Z,67.26
2022-11-28T02:40:10.293Z,67.17
2022-11-28T02:42:50.673Z,67.17
2022-11-28T02:45:27.006Z,67.17
2022-11-28T02:48:01.463Z,67.21
2022-11-28T02:50:35.415Z,67.11
2022-11-28T02:53:09.249Z,66.97
2022-11-28T02:55:40.418Z,67.07
2022-11-28T02:58:10.793Z,67.25
2022-11-28T03:00:44.977Z,67.08
2022-11-28T03:03:35.398Z,67.18
2022-11-28T03:06:12.934Z,67.32
2022-11-28T03:08:58.359Z,67.47
2022-11-28T03:11:41.227Z,67.68
2022-11-28T03:14:21.822Z,67.51
2022-11-28T03:16:56.532Z,67.68
2022-11-28T03:19:27.332Z,67.85
2022-11-28T03:22:03.959Z,67.58
2022-11-28T03:24:39.909Z,67.57
2022-11-28T03:27:14.097Z,67.67
2022-11-28T03:29:46.717Z,67.52
2022-11-28T03:32:22.136Z,67.51
2022-11-28T03:34:55.957Z,67.76
2022-11-28T03:37:30.197Z,67.37
2022-11-28T03:39:59.203Z,67.44
2022-11-28T03:42:30.494Z,67.38
2022-11-28T03:45:03.872Z,67.37
2022-11-28T03:47:38.452Z,67.35
2022-11-28T03:50:13.919Z,67.37
2022-11-28T03:52:48.940Z,67.28
2022-11-28T03:55:22.861Z,67.30
2022-11-28T03:57:56.985Z,67.52
2022-11-28T04:00:26.062Z,67.37
2022-11-28T04:03:07.076Z,67.54
2022-11-28T04:05:44.649Z,67.49
2022-11-28T04:08:16.760Z,67.47
2022-11-28T04:10:52.347Z,67.50
2022-11-28T04:13:24.595Z,67.51
2022-11-28T04:15:58.085Z,67.48
2022-11-28T04:18:30.454Z,67.22
2022-11-28T04:21:06.827Z,67.19
2022-11-28T04:23:39.774Z,67.24
2022-11-28T04:26:13.855Z,67.39
2022-11-28T04:28:43.616Z,67.25
2022-11-28T04:31:12.697Z,67.14
2022-11-28T04:33:45.625Z,67.32
2022-11-28T04:36:16.214Z,67.29
2022-11-28T04:38:55.495Z,67.24
2022-11-28T04:41:29.551Z,67.28
2022-11-28T04:44:03.962Z,67.22
2022-11-28T04:46:38.988Z,67.09
2022-11-28T04:49:07.650Z,66.96
2022-11-28T04:51:43.361Z,66.80
2022-11-28T04:54:18.767Z,66.69
2022-11-28T04:56:53.924Z,66.98
2022-11-28T04:59:22.269Z,66.94
2022-11-28T05:01:50.823Z,66.61
2022-11-28T05:04:20.459Z,66.53
2022-11-28T05:06:49.893Z,66.75
2022-11-28T05:09:19.922Z,66.63
2022-11-28T05:11:49.075Z,66.56
2022-11-28T05:14:20.716Z,66.52
2022-11-28T05:16:49.792Z,66.69
2022-11-28T05:19:19.723Z,66.51
2022-11-28T05:21:47.975Z,66.42
2022-11-28T05:24:16.260Z,66.34
2022-11-28T05:26:45.451Z,66.36
2022-11-28T05:29:13.857Z,66.66
2022-11-28T05:31:42.328Z,66.68
2022-11-28T05:34:11.035Z,66.76
2022-11-28T05:36:39.556Z,66.68
2022-11-28T05:39:07.796Z,66.58
2022-11-28T05:41:36.127Z,66.64
2022-11-28T05:44:04.790Z,66.64
2022-11-28T05:46:33.584Z,66.56
2022-11-28T05:49:01.904Z,66.29
2022-11-28T05:51:30.194Z,66.30
2022-11-28T05:53:58.474Z,66.26
2022-11-28T05:56:26.769Z,66.32
2022-11-28T05:58:55.091Z,66.42
2022-11-28T06:01:25.335Z,66.45
2022-11-28T06:03:59.037Z,66.50
2022-11-28T06:06:31.770Z,66.62
2022-11-28T06:09:00.537Z,66.24
2022-11-28T06:11:31.435Z,66.19
2022-11-28T06:14:00.676Z,66.28
2022-11-28T06:16:31.544Z,66.30
2022-11-28T06:19:02.072Z,66.36
2022-11-28T06:21:32.911Z,66.42
2022-11-28T06:24:01.808Z,66.53
2022-11-28T06:26:32.819Z,66.33
2022-11-28T06:29:02.136Z,66.28
2022-11-28T06:31:32.796Z,66.45
2022-11-28T06:34:10.298Z,66.46
2022-11-28T06:36:39.795Z,66.42
2022-11-28T06:39:10.520Z,66.24
2022-11-28T06:41:40.899Z,66.10
2022-11-28T06:44:13.311Z,66.51
2022-11-28T06:46:42.318Z,66.61
2022-11-28T06:49:12.304Z,66.51
2022-11-28T06:51:41.813Z,66.43
2022-11-28T06:54:10.524Z,66.45
2022-11-28T06:56:40.367Z,66.57
2022-11-28T06:59:12.288Z,66.50
2022-11-28T07:01:40.649Z,66.59
2022-11-28T07:04:09.795Z,66.52
2022-11-28T07:06:38.167Z,66.39
2022-11-28T07:09:06.688Z,66.52
2022-11-28T07:11:35.186Z,66.39
2022-11-28T07:14:03.435Z,66.43
2022-11-28T07:16:33.043Z,66.56
2022-11-28T07:19:02.064Z,66.71
2022-11-28T07:21:30.888Z,66.74
2022-11-28T07:24:00.016Z,67.01
2022-11-28T07:26:29.266Z,66.88
2022-11-28T07:28:59.221Z,66.72
2022-11-28T07:31:31.435Z,66.89
2022-11-28T07:34:02.838Z,66.98
2022-11-28T07:36:32.167Z,67.01
2022-11-28T07:39:02.767Z,67.14
2022-11-28T07:41:31.736Z,67.28
2022-11-28T07:44:02.280Z,67.49
2022-11-28T07:46:32.432Z,67.43
2022-11-28T07:49:01.597Z,67.47
2022-11-28T07:51:32.969Z,67.50
2022-11-28T07:54:02.103Z,67.48
2022-11-28T07:56:57.105Z,67.26
2022-11-28T07:59:20.999Z,67.52
2022-11-28T08:01:49.475Z,67.60
2022-11-28T08:04:17.863Z,67.54
2022-11-28T08:06:46.312Z,67.58
2022-11-28T08:09:14.636Z,67.61
2022-11-28T08:11:43.234Z,67.69
2022-11-28T08:14:11.743Z,67.85
2022-11-28T08:16:44.172Z,67.95
2022-11-28T08:19:12.814Z,68.02
2022-11-28T08:21:41.375Z,68.07
2022-11-28T08:24:11.419Z,68.21
2022-11-28T08:26:39.710Z,68.18
2022-11-28T08:29:09.373Z,68.41
2022-11-28T08:31:39.544Z,68.27
2022-11-28T08:34:09.416Z,68.27
2022-11-28T08:36:38.326Z,68.23
2022-11-28T08:39:23.376Z,68.40
2022-11-28T08:41:53.760Z,68.39
2022-11-28T08:44:22.533Z,68.60
2022-11-28T08:46:51.453Z,68.21
2022-11-28T08:49:20.255Z,68.48
2022-11-28T08:51:48.524Z,68.44
2022-11-28T08:54:16.834Z,68.64
2022-11-28T08:56:47.333Z,68.54
2022-11-28T08:59:15.691Z,68.51
2022-11-28T09:01:44.069Z,68.50
2022-11-28T09:04:12.665Z,68.66
2022-11-28T09:06:41.128Z,68.70
2022-11-28T09:09:09.660Z,68.58
2022-11-28T09:11:38.129Z,68.35
2022-11-28T09:14:07.933Z,68.61
2022-11-28T09:16:38.247Z,68.22
2022-11-28T09:19:08.575Z,68.51
2022-11-28T09:21:36.959Z,68.27
2022-11-28T09:24:07.293Z,68.27
2022-11-28T09:26:35.833Z,68.06
2022-11-28T09:29:07.169Z,67.98
2022-11-28T09:31:35.864Z,68.31
2022-11-28T09:34:04.438Z,68.39
2022-11-28T09:36:32.845Z,68.33
2022-11-28T09:39:01.982Z,68.20
2022-11-28T09:41:38.802Z,68.04
2022-11-28T09:44:15.902Z,68.12
2022-11-28T09:46:46.320Z,68.04
2022-11-28T09:49:32.114Z,67.65
2022-11-28T09:52:11.773Z,67.59
2022-11-28T09:54:48.854Z,68.68
2022-11-28T09:57:25.821Z,67.65
2022-11-28T09:59:54.135Z,67.90
2022-11-28T10:02:29.334Z,67.73
2022-11-28T10:05:11.092Z,67.44
2022-11-28T10:07:54.983Z,67.66
2022-11-28T10:10:33.147Z,67.83
2022-11-28T10:13:08.053Z,67.57
2022-11-28T10:15:45.781Z,67.54
2022-11-28T10:18:33.211Z,67.39
2022-11-28T10:21:04.979Z,67.16
2022-11-28T10:23:38.778Z,66.81
2022-11-28T10:26:14.047Z,67.30
2022-11-28T10:28:48.340Z,67.17
2022-11-28T10:31:24.460Z,67.03
2022-11-28T10:33:59.115Z,66.78
2022-11-28T10:36:30.063Z,66.43
2022-11-28T10:39:09.922Z,66.56
2022-11-28T10:41:44.721Z,66.77
2022-11-28T10:44:21.654Z,66.30
2022-11-28T10:47:01.895Z,66.33
2022-11-28T10:49:42.088Z,66.17
2022-11-28T10:52:20.960Z,65.71
2022-11-28T10:55:04.501Z,65.93
2022-11-28T10:57:40.726Z,65.89
2022-11-28T11:00:14.472Z,65.47
2022-11-28T11:02:46.029Z,65.17
2022-11-28T11:05:17.694Z,65.24
2022-11-28T11:07:50.099Z,65.16
2022-11-28T11:10:21.342Z,65.15
2022-11-28T11:12:51.887Z,64.89
2022-11-28T11:15:24.404Z,64.84
2022-11-28T11:17:53.017Z,64.75
2022-11-28T11:20:31.404Z,65.06
2022-11-28T11:23:01.822Z,64.66
2022-11-28T11:25:32.331Z,64.45
2022-11-28T11:28:04.367Z,64.15
2022-11-28T11:30:35.528Z,63.86
2022-11-28T11:33:06.562Z,63.91
2022-11-28T11:35:42.928Z,63.97
2022-11-28T11:38:27.005Z,64.20
2022-11-28T11:40:55.987Z,64.25
2022-11-28T11:43:30.372Z,64.19
2022-11-28T11:46:09.287Z,64.26
2022-11-28T11:48:40.417Z,64.30
2022-11-28T11:51:22.994Z,64.07
2022-11-28T11:54:02.139Z,64.25
2022-11-28T11:56:37.503Z,64.70
2022-11-28T11:59:13.673Z,64.86
2022-11-28T12:01:44.550Z,64.65
2022-11-28T12:04:43.608Z,64.32
2022-11-28T12:07:20.646Z,64.32
2022-11-28T12:09:54.471Z,64.47
2022-11-28T12:12:26.007Z,64.32
2022-11-28T12:14:54.809Z,63.97
2022-11-28T12:20:41.629Z,64.11
2022-11-28T12:23:26.114Z,64.07
2022-11-28T12:25:59.164Z,63.80
2022-11-28T12:28:43.732Z,63.76
2022-11-28T12:31:20.442Z,63.84
2022-11-28T12:34:00.486Z,63.84
2022-11-28T12:36:34.610Z,64.20
2022-11-28T12:39:19.472Z,63.62
2022-11-28T12:42:19.326Z,63.85
2022-11-28T12:45:04.187Z,64.23
2022-11-28T12:47:43.838Z,64.43
2022-11-28T12:50:25.175Z,64.35
2022-11-28T12:53:01.965Z,63.94
2022-11-28T12:55:41.080Z,64.22
2022-11-28T12:58:16.999Z,64.14
2022-11-28T13:00:54.629Z,64.06
2022-11-28T13:03:40.358Z,64.59
2022-11-28T13:06:22.206Z,64.90
2022-11-28T13:09:02.641Z,64.96
2022-11-28T13:11:56.157Z,65.12
2022-11-28T13:14:33.992Z,64.86
2022-11-28T13:17:16.336Z,65.05
2022-11-28T13:19:51.818Z,65.29
2022-11-28T13:22:23.910Z,65.05
2022-11-28T13:25:01.063Z,65.21
2022-11-28T13:27:38.778Z,65.64
2022-11-28T13:30:18.824Z,65.94
2022-11-28T13:32:55.882Z,65.74
2022-11-28T13:35:24.751Z,65.70
2022-11-28T13:40:55.829Z,65.93
2022-11-28T13:43:33.073Z,66.37
2022-11-28T13:46:02.535Z,66.46
2022-11-28T13:49:13.916Z,66.44
2022-11-28T13:51:43.503Z,66.42
2022-11-28T13:54:45.391Z,66.63
2022-11-28T13:57:24.329Z,66.48
2022-11-28T14:00:01.393Z,66.33
2022-11-28T14:02:42.709Z,66.53
2022-11-28T14:05:27.331Z,66.42
2022-11-28T14:07:56.812Z,66.40
2022-11-28T14:10:57.035Z,66.41
2022-11-28T14:13:49.262Z,66.54
2022-11-28T14:16:27.504Z,66.51
2022-11-28T14:19:14.519Z,66.35
2022-11-28T14:21:57.248Z,66.19
2022-11-28T14:24:44.050Z,66.32
2022-11-28T14:27:20.883Z,66.25
2022-11-28T14:29:52.569Z,66.24
2022-11-28T14:32:31.226Z,66.21
2022-11-28T14:35:01.933Z,66.14
2022-11-28T14:37:49.612Z,66.14
2022-11-28T14:41:05.708Z,65.99
2022-11-28T14:43:37.242Z,66.04
2022-11-28T14:46:27.471Z,66.05
2022-11-28T14:49:18.096Z,66.31
2022-11-28T14:52:38.970Z,66.43
2022-11-28T14:55:20.370Z,66.57
2022-11-28T14:57:55.996Z,66.48
2022-11-28T15:00:28.115Z,66.45
2022-11-28T15:03:12.006Z,66.78
2022-11-28T15:05:49.559Z,66.77
2022-11-28T15:08:52.331Z,66.77
2022-11-28T15:11:32.765Z,66.84
2022-11-28T15:14:10.000Z,66.95
2022-11-28T15:16:49.657Z,66.83
2022-11-28T15:19:25.116Z,66.98
2022-11-28T15:21:55.490Z,66.99
2022-11-28T15:24:26.961Z,66.98
2022-11-28T15:26:58.063Z,67.00
2022-11-28T15:29:28.346Z,66.95
2022-11-28T15:31:58.594Z,67.02
2022-11-28T15:34:30.018Z,67.23
2022-11-28T15:37:00.738Z,67.28
2022-11-28T15:39:34.117Z,67.09
2022-11-28T15:42:06.177Z,67.09
2022-11-28T15:44:39.185Z,67.38
2022-11-28T15:47:17.916Z,67.49
2022-11-28T15:49:57.370Z,67.52
2022-11-28T15:52:25.880Z,67.64
2022-11-28T15:54:54.570Z,67.76
2022-11-28T15:57:26.009Z,68.02
2022-11-28T15:59:55.532Z,68.19
2022-11-28T16:02:29.081Z,67.91
2022-11-28T16:05:06.033Z,67.74
2022-11-28T16:07:40.836Z,67.91
2022-11-28T16:10:23.122Z,68.09
2022-11-28T16:13:02.007Z,68.27
2022-11-28T16:15:31.483Z,68.20
2022-11-28T16:17:59.803Z,68.19
2022-11-28T16:20:33.606Z,68.24
2022-11-28T16:23:09.605Z,68.07
2022-11-28T16:25:38.377Z,68.38
2022-11-28T16:28:33.778Z,68.41
2022-11-28T16:31:10.301Z,68.57
2022-11-28T16:33:40.832Z,68.65
2022-11-28T16:36:17.599Z,68.88
2022-11-28T16:38:48.137Z,68.80
2022-11-28T16:41:18.315Z,68.86
2022-11-28T16:43:52.300Z,68.88
2022-11-28T16:46:22.532Z,68.90
2022-11-28T16:48:55.005Z,69.04
2022-11-28T16:51:35.222Z,68.89
2022-11-28T16:54:23.553Z,69.00
2022-11-28T16:56:57.163Z,69.12
2022-11-28T16:59:25.844Z,69.32
2022-11-28T17:01:54.433Z,69.36
2022-11-28T17:04:25.791Z,69.35
2022-11-28T17:06:56.899Z,69.43
2022-11-28T17:09:25.514Z,69.44
2022-11-28T17:11:57.866Z,69.60
2022-11-28T17:14:26.754Z,69.75
2022-11-28T17:16:55.067Z,69.70
2022-11-28T17:19:23.401Z,70.05
2022-11-28T17:21:54.595Z,69.98
2022-11-28T17:24:25.067Z,69.79
2022-11-28T17:26:54.830Z,69.70
2022-11-28T17:29:24.594Z,69.76
2022-11-28T17:31:54.594Z,69.97
2022-11-28T17:34:25.078Z,70.20
2022-11-28T17:36:53.899Z,70.58
2022-11-28T17:39:22.707Z,70.92
2022-11-28T17:41:51.367Z,71.15
2022-11-28T17:44:21.499Z,71.41
2022-11-28T17:46:51.165Z,71.65
2022-11-28T17:49:20.565Z,71.73
2022-11-28T17:51:50.983Z,71.92
2022-11-28T17:54:22.844Z,72.18
2022-11-28T17:56:52.403Z,72.28
2022-11-28T17:59:22.347Z,72.21
2022-11-28T18:01:50.915Z,72.54
2022-11-28T18:04:24.148Z,72.24
2022-11-28T18:06:52.919Z,72.35
2022-11-28T18:09:21.492Z,72.38
2022-11-28T18:11:50.998Z,72.39
2022-11-28T18:14:19.957Z,72.31
2022-11-28T18:16:48.961Z,72.12
2022-11-28T18:19:17.699Z,72.25
2022-11-28T18:21:46.138Z,72.32
2022-11-28T18:24:14.467Z,71.94
2022-11-28T18:26:42.953Z,72.24
2022-11-28T18:29:11.248Z,72.06
2022-11-28T18:31:39.757Z,72.04
2022-11-28T18:34:10.095Z,71.78
2022-11-28T18:36:39.637Z,71.97
2022-11-28T18:39:11.987Z,71.85
2022-11-28T18:41:41.338Z,71.89
2022-11-28T18:44:11.235Z,72.06
2022-11-28T18:46:39.790Z,72.17
2022-11-28T18:49:10.190Z,71.92
2022-11-28T18:51:38.953Z,72.14
2022-11-28T18:54:08.986Z,72.14
2022-11-28T18:56:37.411Z,72.01
2022-11-28T18:59:06.592Z,71.95
2022-11-28T19:01:35.272Z,71.94
2022-11-28T19:04:08.107Z,71.76
2022-11-28T19:06:38.731Z,71.73
2022-11-28T19:09:10.504Z,71.81
2022-11-28T19:11:40.253Z,71.77
2022-11-28T19:14:10.436Z,71.87
2022-11-28T19:16:40.683Z,71.85
2022-11-28T19:19:09.660Z,71.71
2022-11-28T19:21:38.497Z,71.76
2022-11-28T19:24:08.724Z,71.82
2022-11-28T19:26:38.311Z,71.67
2022-11-28T19:29:07.230Z,71.68
2022-11-28T19:31:37.409Z,71.50
2022-11-28T19:34:08.119Z,71.49
2022-11-28T19:36:40.163Z,71.38
2022-11-28T19:39:12.489Z,71.28
2022-11-28T19:41:41.120Z,71.35
2022-11-28T19:44:11.328Z,71.24
2022-11-28T19:46:40.999Z,71.21
2022-11-28T19:49:16.171Z,71.13
2022-11-28T19:51:45.862Z,71.49
2022-11-28T19:54:14.572Z,71.33
2022-11-28T19:56:43.082Z,71.16
2022-11-28T19:59:12.445Z,71.16
2022-11-28T20:01:41.015Z,71.06
2022-11-28T20:04:10.213Z,71.25
2022-11-28T20:06:40.146Z,71.09
2022-11-28T20:09:12.710Z,70.98
2022-11-28T20:11:44.957Z,70.96
2022-11-28T20:14:15.888Z,71.09
2022-11-28T20:16:45.882Z,71.26
2022-11-28T20:19:15.782Z,70.98
2022-11-28T20:21:46.680Z,70.78
2022-11-28T20:24:16.363Z,70.82
2022-11-28T20:26:46.768Z,71.14
2022-11-28T20:29:16.639Z,70.94
2022-11-28T20:31:47.390Z,70.82
2022-11-28T20:34:19.611Z,70.61
2022-11-28T20:36:52.923Z,70.63
2022-11-28T20:39:21.690Z,70.93
2022-11-28T20:41:50.691Z,70.71
2022-11-28T20:44:19.661Z,70.66
2022-11-28T20:46:49.398Z,70.58
2022-11-28T20:49:18.521Z,70.83
2022-11-28T20:51:47.098Z,70.77
2022-11-28T20:54:16.309Z,70.78
2022-11-28T20:57:19.664Z,70.88
2022-11-28T20:59:33.311Z,71.00
2022-11-28T21:02:02.135Z,70.83
2022-11-28T21:04:31.326Z,70.76
2022-11-28T21:06:59.776Z,70.95
2022-11-28T21:09:28.199Z,71.03
2022-11-28T21:11:59.203Z,70.86
2022-11-28T21:14:28.738Z,70.59
2022-11-28T21:16:58.231Z,70.68
2022-11-28T21:19:26.867Z,70.65
2022-11-28T21:21:55.342Z,70.36
2022-11-28T21:24:23.754Z,70.28
2022-11-28T21:26:54.395Z,70.33
2022-11-28T21:29:24.075Z,70.42
2022-11-28T21:31:53.346Z,70.51
2022-11-28T21:34:22.223Z,70.49
2022-11-28T21:36:50.695Z,70.42
2022-11-28T21:39:20.351Z,70.66
2022-11-28T21:41:51.005Z,70.53
2022-11-28T21:44:20.043Z,70.74
2022-11-28T21:46:48.899Z,70.72
2022-11-28T21:49:18.139Z,70.77
2022-11-28T21:51:46.761Z,70.72
2022-11-28T21:54:15.738Z,70.70
2022-11-28T21:56:45.943Z,70.66
2022-11-28T21:59:14.415Z,70.94
2022-11-28T22:01:42.798Z,70.88
2022-11-28T22:04:11.159Z,70.96
2022-11-28T22:06:40.802Z,70.67
2022-11-28T22:09:09.969Z,70.68
2022-11-28T22:11:39.805Z,70.65
2022-11-28T22:14:08.110Z,70.60
2022-11-28T22:16:37.055Z,70.84
2022-11-28T22:19:05.808Z,70.80
2022-11-28T22:21:55.784Z,70.77
2022-11-28T22:24:25.702Z,70.96
2022-11-28T22:26:55.662Z,70.79
2022-11-28T22:29:25.290Z,71.08
2022-11-28T22:31:54.959Z,71.12
2022-11-28T22:34:24.317Z,71.00
2022-11-28T22:36:52.736Z,70.83
2022-11-28T22:39:22.100Z,70.84
2022-11-28T22:41:50.691Z,71.18
2022-11-28T22:44:19.515Z,71.15
2022-11-28T22:46:49.448Z,71.04
2022-11-28T22:49:18.114Z,70.90
2022-11-28T22:51:46.570Z,70.95
2022-11-28T22:54:15.251Z,70.98
2022-11-28T22:56:43.625Z,71.05
2022-11-28T22:59:13.314Z,71.02
2022-11-28T23:01:42.884Z,70.91
2022-11-28T23:04:11.224Z,71.01
2022-11-28T23:06:39.801Z,71.09
2022-11-28T23:09:09.956Z,70.81
2022-11-28T23:11:39.822Z,70.86
2022-11-28T23:14:11.598Z,70.90
2022-11-28T23:16:43.016Z,71.10
2022-11-28T23:19:14.825Z,70.65
2022-11-28T23:21:46.608Z,70.58
2022-11-28T23:24:18.070Z,70.59
2022-11-28T23:26:47.884Z,70.78
2022-11-28T23:29:17.590Z,71.03
2022-11-28T23:31:47.140Z,70.84
2022-11-28T23:34:16.163Z,70.95
2022-11-28T23:36:47.631Z,70.65
2022-11-28T23:39:17.978Z,70.68
2022-11-28T23:41:47.019Z,70.76
2022-11-28T23:44:16.887Z,70.61
2022-11-28T23:46:47.542Z,70.44
2022-11-28T23:49:16.892Z,70.40
2022-11-28T23:51:46.439Z,70.13
2022-11-28T23:54:14.897Z,70.17
2022-11-28T23:56:43.596Z,70.35
2022-11-28T23:59:12.931Z,70.37
